createdAt,value
2019-06-20T00:01:43.628Z,96.61
2019-06-20T00:04:12.106Z,95.61
2019-06-20T00:06:40.691Z,95.70
2019-06-20T00:09:09.153Z,95.40
2019-06-20T00:11:37.753Z,94.97
2019-06-20T00:14:06.206Z,96.53
2019-06-20T00:16:34.796Z,97.62
2019-06-20T00:19:03.658Z,96.12
2019-06-20T00:21:32.282Z,97.10
2019-06-20T00:24:00.769Z,96.30
2019-06-20T00:26:29.249Z,97.77
2019-06-20T00:28:57.729Z,98.44
2019-06-20T00:31:26.094Z,98.08
2019-06-20T00:33:54.568Z,99.76
2019-06-20T00:36:23.051Z,99.45
2019-06-20T00:38:51.753Z,99.36
2019-06-20T00:41:20.218Z,97.98
2019-06-20T00:43:48.719Z,96.40
2019-06-20T00:46:17.253Z,98.33
2019-06-20T00:48:45.822Z,98.28
2019-06-20T00:51:14.393Z,99.89
2019-06-20T00:53:42.947Z,98.01
2019-06-20T00:56:11.524Z,97.57
2019-06-20T00:58:39.983Z,98.25
2019-06-20T01:01:08.468Z,98.66
2019-06-20T01:03:37.154Z,99.58
2019-06-20T01:06:05.722Z,98.68
2019-06-20T01:08:34.176Z,99.52
2019-06-20T01:11:02.781Z,98.41
2019-06-20T01:13:33.928Z,98.21
2019-06-20T01:16:01.738Z,98.48
2019-06-20T01:18:30.337Z,99.29
2019-06-20T01:20:59.081Z,99.31
2019-06-20T01:23:27.560Z,100.00
2019-06-20T01:25:56.032Z,99.89
2019-06-20T01:28:24.497Z,100.00
2019-06-20T01:30:53.061Z,100.00
2019-06-20T01:33:21.637Z,99.89
2019-06-20T01:35:50.205Z,100.00
2019-06-20T01:38:18.685Z,100.00
2019-06-20T01:40:47.136Z,100.00
2019-06-20T01:43:15.615Z,100.00
2019-06-20T01:45:44.068Z,100.00
2019-06-20T01:48:12.541Z,100.00
2019-06-20T01:50:41.146Z,100.00
2019-06-20T01:53:09.625Z,100.00
2019-06-20T01:55:38.098Z,100.00
2019-06-20T01:58:06.684Z,100.00
2019-06-20T02:00:45.131Z,100.00
2019-06-20T02:03:14.937Z,100.00
2019-06-20T02:05:43.911Z,100.00
2019-06-20T02:08:12.782Z,100.00
2019-06-20T02:10:41.452Z,100.00
2019-06-20T02:13:09.935Z,100.00
2019-06-20T02:15:38.495Z,100.00
2019-06-20T02:18:06.971Z,100.00
2019-06-20T02:20:37.331Z,100.00
2019-06-20T02:23:06.139Z,100.00
2019-06-20T02:25:34.815Z,100.00
2019-06-20T02:28:03.458Z,100.00
2019-06-20T02:30:32.033Z,100.00
2019-06-20T02:33:00.589Z,100.00
2019-06-20T02:35:29.148Z,100.00
2019-06-20T02:37:57.658Z,100.00
2019-06-20T02:40:26.125Z,100.00
2019-06-20T02:42:54.591Z,100.00
2019-06-20T02:45:23.278Z,100.00
2019-06-20T02:47:51.885Z,100.00
2019-06-20T02:50:21.355Z,100.00
2019-06-20T02:52:49.939Z,100.00
2019-06-20T02:55:18.635Z,100.00
2019-06-20T02:57:47.197Z,100.00
2019-06-20T03:00:21.938Z,100.00
2019-06-20T03:02:50.422Z,100.00
2019-06-20T03:05:18.898Z,100.00
2019-06-20T03:07:47.468Z,100.00
2019-06-20T03:10:15.963Z,100.00
2019-06-20T03:12:44.543Z,100.00
2019-06-20T03:15:13.216Z,100.00
2019-06-20T03:17:41.761Z,100.00
2019-06-20T03:20:10.398Z,100.00
2019-06-20T03:22:39.031Z,100.00
2019-06-20T03:25:08.020Z,100.00
2019-06-20T03:27:36.588Z,100.00
2019-06-20T03:30:05.480Z,100.00
2019-06-20T03:32:33.966Z,100.00
2019-06-20T03:35:03.078Z,100.00
2019-06-20T03:37:31.648Z,100.00
2019-06-20T03:40:00.120Z,100.00
2019-06-20T03:42:28.584Z,100.00
2019-06-20T03:45:02.243Z,100.00
2019-06-20T03:47:27.331Z,100.00
2019-06-20T03:49:55.794Z,100.00
2019-06-20T03:52:24.326Z,100.00
2019-06-20T03:54:52.753Z,100.00
2019-06-20T03:57:21.118Z,100.00
2019-06-20T03:59:49.676Z,100.00
2019-06-20T04:02:18.034Z,100.00
2019-06-20T04:04:46.403Z,100.00
2019-06-20T04:07:14.985Z,100.00
2019-06-20T04:09:43.546Z,100.00
2019-06-20T04:12:12.012Z,100.00
2019-06-20T04:14:40.611Z,100.00
2019-06-20T04:17:09.172Z,100.00
2019-06-20T04:19:37.541Z,100.00
2019-06-20T04:22:06.018Z,100.00
2019-06-20T04:24:34.475Z,100.00
2019-06-20T04:27:03.176Z,100.00
2019-06-20T04:29:31.750Z,100.00
2019-06-20T04:32:00.110Z,100.00
2019-06-20T04:34:28.598Z,100.00
2019-06-20T04:36:57.207Z,100.00
2019-06-20T04:39:25.784Z,100.00
2019-06-20T04:41:54.258Z,100.00
2019-06-20T04:44:22.826Z,100.00
2019-06-20T04:46:56.969Z,100.00
2019-06-20T04:49:25.441Z,100.00
2019-06-20T04:51:53.894Z,100.00
2019-06-20T04:54:22.273Z,100.00
2019-06-20T04:56:50.729Z,100.00
2019-06-20T04:59:19.404Z,100.00
2019-06-20T05:01:47.971Z,99.06
2019-06-20T05:04:16.432Z,97.17
2019-06-20T05:06:48.822Z,97.88
2019-06-20T05:09:17.303Z,98.79
2019-06-20T05:11:45.738Z,98.50
2019-06-20T05:14:14.229Z,99.15
2019-06-20T05:16:42.719Z,98.47
2019-06-20T05:19:11.300Z,98.02
2019-06-20T05:21:39.769Z,97.10
2019-06-20T05:24:08.229Z,95.78
2019-06-20T05:26:36.807Z,95.25
2019-06-20T05:29:05.632Z,95.36
2019-06-20T05:31:34.189Z,95.88
2019-06-20T05:34:02.718Z,95.95
2019-06-20T05:36:31.311Z,96.15
2019-06-20T05:38:59.801Z,95.32
2019-06-20T05:41:28.357Z,97.19
2019-06-20T05:43:56.977Z,97.06
2019-06-20T05:46:25.458Z,95.92
2019-06-20T05:48:54.038Z,96.24
2019-06-20T05:51:22.619Z,95.57
2019-06-20T05:53:51.090Z,94.40
2019-06-20T05:56:19.564Z,93.40
2019-06-20T05:58:47.945Z,93.19
2019-06-20T06:01:16.551Z,92.97
2019-06-20T06:03:45.134Z,92.42
2019-06-20T06:06:13.695Z,91.87
2019-06-20T06:08:42.271Z,90.97
2019-06-20T06:11:10.847Z,90.56
2019-06-20T06:13:39.412Z,90.56
2019-06-20T06:16:07.935Z,90.36
2019-06-20T06:18:36.520Z,89.49
2019-06-20T06:21:05.271Z,87.89
2019-06-20T06:23:33.883Z,87.04
2019-06-20T06:26:02.513Z,87.54
2019-06-20T06:28:30.989Z,86.24
2019-06-20T06:30:59.581Z,85.83
2019-06-20T06:33:28.060Z,85.81
2019-06-20T06:35:56.452Z,82.85
2019-06-20T06:38:25.045Z,83.94
2019-06-20T06:40:54.328Z,84.02
2019-06-20T06:43:22.949Z,83.01
2019-06-20T06:45:51.459Z,83.08
2019-06-20T06:48:20.026Z,83.19
2019-06-20T06:50:48.622Z,83.38
2019-06-20T06:53:17.227Z,84.11
2019-06-20T06:55:45.691Z,83.63
2019-06-20T06:58:14.347Z,84.61
2019-06-20T07:00:42.821Z,83.71
2019-06-20T07:03:11.506Z,83.97
2019-06-20T07:05:39.879Z,82.85
2019-06-20T07:08:08.437Z,82.28
2019-06-20T07:10:37.033Z,81.41
2019-06-20T07:13:05.798Z,83.26
2019-06-20T07:15:34.485Z,83.38
2019-06-20T07:18:03.187Z,83.31
2019-06-20T07:20:31.678Z,82.12
2019-06-20T07:23:00.184Z,79.99
2019-06-20T07:25:28.547Z,78.59
2019-06-20T07:27:57.144Z,77.94
2019-06-20T07:30:25.864Z,79.35
2019-06-20T07:32:54.410Z,78.32
2019-06-20T07:35:22.796Z,77.84
2019-06-20T07:37:51.427Z,77.69
2019-06-20T07:40:20.082Z,77.01
2019-06-20T07:42:49.030Z,77.07
2019-06-20T07:45:27.121Z,76.00
2019-06-20T07:47:54.941Z,76.91
2019-06-20T07:50:23.641Z,76.59
2019-06-20T07:53:01.914Z,76.16
2019-06-20T07:55:22.892Z,76.35
2019-06-20T07:57:51.554Z,75.75
2019-06-20T08:00:20.366Z,74.40
2019-06-20T08:02:48.837Z,74.48
2019-06-20T08:05:17.704Z,73.44
2019-06-20T08:07:46.170Z,75.32
2019-06-20T08:10:15.769Z,73.93
2019-06-20T08:12:44.242Z,75.03
2019-06-20T08:15:15.678Z,71.61
2019-06-20T08:17:44.082Z,73.95
2019-06-20T08:20:12.883Z,72.45
2019-06-20T08:22:41.360Z,70.14
2019-06-20T08:25:10.660Z,71.97
2019-06-20T08:27:51.212Z,68.30
2019-06-20T08:30:24.551Z,71.18
2019-06-20T08:32:53.316Z,71.96
2019-06-20T08:35:23.020Z,64.41
2019-06-20T08:37:52.661Z,64.68
2019-06-20T08:40:22.777Z,68.10
2019-06-20T08:42:51.531Z,68.86
2019-06-20T08:45:20.807Z,68.78
2019-06-20T08:47:49.268Z,66.69
2019-06-20T08:50:18.196Z,61.56
2019-06-20T08:52:46.690Z,59.87
2019-06-20T08:55:15.476Z,60.90
2019-06-20T08:57:44.038Z,61.96
2019-06-20T09:00:12.884Z,65.78
2019-06-20T09:02:41.361Z,59.39
2019-06-20T09:05:11.053Z,59.31
2019-06-20T09:07:41.771Z,59.14
2019-06-20T09:10:11.137Z,62.46
2019-06-20T09:12:39.622Z,61.53
2019-06-20T09:15:08.915Z,60.65
2019-06-20T09:17:37.414Z,59.08
2019-06-20T09:20:06.717Z,59.08
2019-06-20T09:22:35.207Z,58.54
2019-06-20T09:25:04.506Z,54.65
2019-06-20T09:27:33.158Z,61.50
2019-06-20T09:30:03.498Z,54.35
2019-06-20T09:32:32.523Z,61.08
2019-06-20T09:35:02.975Z,61.08
2019-06-20T09:37:31.904Z,62.08
2019-06-20T09:40:08.029Z,58.72
2019-06-20T09:42:38.756Z,55.35
2019-06-20T09:45:11.001Z,57.08
2019-06-20T09:47:45.156Z,56.13
2019-06-20T09:50:16.457Z,58.19
2019-06-20T09:52:45.050Z,59.88
2019-06-20T09:55:15.624Z,57.68
2019-06-20T09:57:52.112Z,63.44
2019-06-20T10:00:23.257Z,61.64
2019-06-20T10:02:57.787Z,55.17
2019-06-20T10:05:29.257Z,58.98
2019-06-20T10:07:58.942Z,60.45
2019-06-20T10:10:29.962Z,60.17
2019-06-20T10:13:08.424Z,60.75
2019-06-20T10:15:40.191Z,56.91
2019-06-20T10:18:18.007Z,50.21
2019-06-20T10:20:48.834Z,48.22
2019-06-20T10:23:24.533Z,53.71
2019-06-20T10:25:53.684Z,54.11
2019-06-20T10:28:23.673Z,50.50
2019-06-20T10:30:53.414Z,54.35
2019-06-20T10:33:32.077Z,55.29
2019-06-20T10:36:00.571Z,49.44
2019-06-20T10:38:29.195Z,48.59
2019-06-20T10:41:08.444Z,54.51
2019-06-20T10:43:36.979Z,50.98
2019-06-20T10:46:05.970Z,56.25
2019-06-20T10:48:35.770Z,57.80
2019-06-20T10:51:25.546Z,47.36
2019-06-20T10:53:56.252Z,53.99
2019-06-20T10:56:27.607Z,49.97
2019-06-20T10:58:57.922Z,50.86
2019-06-20T11:01:31.994Z,55.44
2019-06-20T11:04:03.707Z,51.30
2019-06-20T11:06:39.900Z,49.52
2019-06-20T11:09:09.538Z,53.81
2019-06-20T11:11:38.387Z,48.09
2019-06-20T11:14:19.761Z,53.00
2019-06-20T11:16:56.158Z,53.46
2019-06-20T11:19:24.711Z,54.64
2019-06-20T11:21:53.336Z,54.92
2019-06-20T11:24:22.033Z,47.80
2019-06-20T11:26:50.689Z,52.71
2019-06-20T11:29:19.667Z,52.02
2019-06-20T11:31:49.609Z,53.87
2019-06-20T11:34:18.468Z,52.38
2019-06-20T11:36:47.040Z,50.37
2019-06-20T11:39:15.652Z,47.11
2019-06-20T11:41:44.171Z,53.33
2019-06-20T11:44:12.791Z,45.46
2019-06-20T11:46:42.615Z,54.62
2019-06-20T11:49:11.257Z,48.33
2019-06-20T11:51:40.041Z,54.53
2019-06-20T11:54:08.736Z,54.93
2019-06-20T11:56:37.203Z,51.12
2019-06-20T11:59:05.756Z,55.97
2019-06-20T12:01:34.426Z,45.82
2019-06-20T12:04:03.023Z,53.03
2019-06-20T12:06:31.650Z,53.06
2019-06-20T12:09:02.965Z,53.38
2019-06-20T12:11:31.821Z,45.53
2019-06-20T12:14:00.304Z,52.29
2019-06-20T12:16:28.883Z,46.48
2019-06-20T12:18:57.431Z,48.32
2019-06-20T12:21:25.810Z,54.82
2019-06-20T12:23:54.385Z,49.89
2019-06-20T12:26:22.975Z,54.44
2019-06-20T12:28:51.560Z,52.95
2019-06-20T12:31:20.151Z,53.61
2019-06-20T12:33:49.560Z,51.24
2019-06-20T12:36:18.219Z,48.67
2019-06-20T12:38:48.257Z,51.64
2019-06-20T12:41:16.986Z,44.48
2019-06-20T12:43:46.354Z,45.35
2019-06-20T12:46:15.031Z,54.22
2019-06-20T12:48:45.008Z,55.88
2019-06-20T12:51:13.769Z,48.54
2019-06-20T12:53:42.345Z,51.51
2019-06-20T12:56:10.953Z,45.66
2019-06-20T12:58:40.748Z,53.01
2019-06-20T13:01:10.213Z,52.05
2019-06-20T13:03:40.433Z,53.41
2019-06-20T13:06:09.027Z,46.63
2019-06-20T13:08:39.023Z,47.06
2019-06-20T13:11:08.178Z,55.33
2019-06-20T13:13:38.785Z,52.13
2019-06-20T13:16:07.487Z,57.43
2019-06-20T13:18:36.081Z,53.41
2019-06-20T13:21:04.868Z,51.78
2019-06-20T13:23:33.445Z,45.80
2019-06-20T13:26:02.207Z,48.85
2019-06-20T13:28:31.073Z,54.23
2019-06-20T13:30:59.813Z,46.24
2019-06-20T13:33:28.592Z,53.45
2019-06-20T13:35:57.474Z,52.23
2019-06-20T13:38:25.942Z,55.63
2019-06-20T13:40:54.439Z,52.82
2019-06-20T13:43:22.898Z,53.02
2019-06-20T13:45:52.172Z,49.29
2019-06-20T13:48:21.466Z,51.77
2019-06-20T13:50:50.243Z,53.92
2019-06-20T13:53:18.844Z,44.88
2019-06-20T13:55:47.727Z,52.76
2019-06-20T13:58:16.354Z,46.09
2019-06-20T14:00:45.579Z,46.04
2019-06-20T14:03:14.216Z,48.09
2019-06-20T14:05:42.902Z,51.70
2019-06-20T14:08:11.615Z,51.75
2019-06-20T14:10:40.267Z,50.32
2019-06-20T14:13:18.656Z,47.71
2019-06-20T14:15:39.417Z,49.27
2019-06-20T14:18:07.887Z,51.43
2019-06-20T14:20:36.878Z,51.89
2019-06-20T14:23:05.509Z,51.45
2019-06-20T14:25:34.401Z,46.25
2019-06-20T14:28:02.925Z,52.11
2019-06-20T14:30:31.895Z,52.67
2019-06-20T14:33:00.501Z,45.83
2019-06-20T14:35:29.069Z,48.09
2019-06-20T14:37:58.456Z,56.23
2019-06-20T14:40:26.930Z,50.32
2019-06-20T14:42:55.684Z,54.97
2019-06-20T14:45:24.451Z,53.05
2019-06-20T14:47:53.263Z,51.15
2019-06-20T14:50:22.861Z,55.80
2019-06-20T14:52:52.240Z,41.83
2019-06-20T14:55:21.050Z,53.80
2019-06-20T14:57:50.440Z,50.06
2019-06-20T15:00:20.287Z,53.13
2019-06-20T15:02:53.144Z,51.96
2019-06-20T15:05:20.225Z,50.94
2019-06-20T15:07:49.628Z,50.10
2019-06-20T15:10:20.190Z,51.31
2019-06-20T15:12:50.281Z,47.56
2019-06-20T15:15:20.050Z,46.91
2019-06-20T15:17:50.264Z,49.16
2019-06-20T15:20:19.425Z,42.08
2019-06-20T15:22:49.254Z,49.72
2019-06-20T15:25:18.673Z,52.51
2019-06-20T15:27:49.597Z,52.95
2019-06-20T15:30:18.260Z,52.95
2019-06-20T15:32:59.007Z,52.67
2019-06-20T15:35:17.506Z,51.64
2019-06-20T15:37:46.676Z,54.57
2019-06-20T15:40:16.561Z,45.57
2019-06-20T15:42:45.423Z,46.82
2019-06-20T15:45:16.995Z,50.81
2019-06-20T15:47:45.768Z,49.68
2019-06-20T15:50:15.052Z,52.28
2019-06-20T15:52:43.537Z,49.85
2019-06-20T15:55:12.885Z,51.95
2019-06-20T15:57:42.010Z,49.46
2019-06-20T16:00:11.399Z,54.50
2019-06-20T16:02:40.163Z,51.07
2019-06-20T16:05:10.067Z,50.21
2019-06-20T16:07:38.918Z,49.93
2019-06-20T16:10:07.858Z,50.78
2019-06-20T16:12:36.516Z,49.30
2019-06-20T16:15:06.489Z,49.64
2019-06-20T16:17:35.079Z,48.29
2019-06-20T16:20:04.439Z,50.20
2019-06-20T16:22:33.219Z,56.77
2019-06-20T16:25:02.413Z,49.14
2019-06-20T16:27:30.963Z,45.51
2019-06-20T16:29:59.655Z,50.35
2019-06-20T16:32:28.229Z,45.68
2019-06-20T16:34:56.597Z,51.95
2019-06-20T16:37:25.079Z,48.98
2019-06-20T16:39:53.879Z,50.34
2019-06-20T16:42:22.596Z,55.55
2019-06-20T16:44:51.494Z,55.82
2019-06-20T16:47:20.174Z,54.26
2019-06-20T16:49:48.862Z,56.76
2019-06-20T16:52:17.483Z,52.92
2019-06-20T16:54:45.951Z,51.49
2019-06-20T16:57:14.520Z,45.31
2019-06-20T16:59:43.394Z,47.53
2019-06-20T17:02:11.996Z,50.26
2019-06-20T17:04:40.664Z,46.88
2019-06-20T17:07:09.241Z,51.07
2019-06-20T17:09:37.909Z,55.63
2019-06-20T17:12:06.487Z,56.50
2019-06-20T17:14:35.061Z,49.48
2019-06-20T17:17:03.745Z,57.95
2019-06-20T17:19:32.401Z,50.01
2019-06-20T17:22:00.867Z,46.22
2019-06-20T17:24:29.440Z,56.41
2019-06-20T17:26:58.617Z,52.19
2019-06-20T17:29:27.217Z,53.25
2019-06-20T17:31:57.492Z,56.42
2019-06-20T17:34:26.281Z,57.58
2019-06-20T17:36:54.855Z,60.76
2019-06-20T17:39:23.336Z,59.42
2019-06-20T17:41:55.488Z,61.38
2019-06-20T17:44:22.526Z,62.18
2019-06-20T17:46:51.035Z,61.40
2019-06-20T17:49:19.413Z,63.92
2019-06-20T17:51:47.980Z,62.89
2019-06-20T17:54:16.553Z,63.90
2019-06-20T17:56:45.038Z,64.00
2019-06-20T17:59:13.547Z,62.41
2019-06-20T18:01:42.118Z,63.07
2019-06-20T18:04:13.979Z,63.37
2019-06-20T18:06:41.021Z,62.74
2019-06-20T18:09:09.695Z,65.54
2019-06-20T18:11:38.256Z,63.97
2019-06-20T18:14:06.657Z,64.64
2019-06-20T18:16:35.117Z,62.51
2019-06-20T18:19:03.916Z,63.01
2019-06-20T18:21:32.625Z,61.41
2019-06-20T18:24:01.108Z,63.60
2019-06-20T18:26:29.808Z,61.88
2019-06-20T18:28:58.492Z,60.81
2019-06-20T18:31:27.453Z,61.43
2019-06-20T18:33:56.255Z,64.68
2019-06-20T18:36:24.811Z,64.33
2019-06-20T18:38:53.284Z,63.17
2019-06-20T18:41:22.095Z,63.15
2019-06-20T18:43:50.788Z,64.15
2019-06-20T18:46:19.364Z,64.79
2019-06-20T18:48:47.956Z,65.61
2019-06-20T18:51:16.444Z,64.92
2019-06-20T18:53:44.832Z,65.00
2019-06-20T18:56:13.390Z,65.30
2019-06-20T18:58:41.821Z,65.04
2019-06-20T19:01:10.407Z,67.72
2019-06-20T19:03:38.994Z,66.69
2019-06-20T19:06:07.646Z,64.05
2019-06-20T19:08:36.224Z,65.93
2019-06-20T19:11:05.402Z,67.13
2019-06-20T19:13:34.122Z,64.52
2019-06-20T19:16:02.596Z,64.52
2019-06-20T19:18:31.215Z,66.85
2019-06-20T19:20:59.704Z,65.90
2019-06-20T19:23:28.979Z,69.03
2019-06-20T19:25:57.571Z,67.05
2019-06-20T19:28:26.714Z,67.05
2019-06-20T19:30:55.789Z,66.77
2019-06-20T19:33:24.662Z,67.87
2019-06-20T19:35:53.173Z,67.39
2019-06-20T19:38:21.647Z,70.20
2019-06-20T19:40:50.748Z,67.64
2019-06-20T19:43:19.443Z,67.54
2019-06-20T19:45:48.117Z,68.05
2019-06-20T19:48:16.797Z,67.30
2019-06-20T19:50:45.374Z,69.23
2019-06-20T19:53:13.972Z,68.95
2019-06-20T19:55:42.435Z,66.59
2019-06-20T19:58:11.333Z,70.14
2019-06-20T20:00:39.735Z,68.11
2019-06-20T20:03:08.494Z,68.69
2019-06-20T20:05:37.135Z,69.21
2019-06-20T20:08:05.882Z,68.26
2019-06-20T20:10:43.157Z,66.80
2019-06-20T20:13:14.483Z,67.78
2019-06-20T20:15:42.769Z,69.65
2019-06-20T20:18:11.496Z,70.29
2019-06-20T20:20:40.008Z,67.76
2019-06-20T20:23:08.592Z,67.52
2019-06-20T20:25:37.130Z,67.52
2019-06-20T20:28:05.900Z,67.96
2019-06-20T20:30:34.579Z,68.90
2019-06-20T20:33:03.510Z,69.27
2019-06-20T20:35:35.894Z,69.52
2019-06-20T20:38:02.689Z,70.81
2019-06-20T20:40:31.198Z,69.21
2019-06-20T20:42:59.731Z,71.25
2019-06-20T20:45:28.313Z,70.99
2019-06-20T20:47:56.820Z,71.95
2019-06-20T20:50:25.393Z,71.42
2019-06-20T20:52:53.967Z,71.42
2019-06-20T20:55:23.119Z,71.08
2019-06-20T20:57:51.678Z,70.14
2019-06-20T21:00:25.520Z,68.66
2019-06-20T21:02:54.505Z,69.05
2019-06-20T21:05:23.271Z,69.77
2019-06-20T21:07:51.838Z,69.85
2019-06-20T21:10:20.665Z,69.85
2019-06-20T21:12:49.132Z,68.05
2019-06-20T21:15:18.201Z,67.39
2019-06-20T21:17:46.919Z,67.39
2019-06-20T21:20:17.097Z,69.33
2019-06-20T21:22:45.656Z,68.24
2019-06-20T21:25:14.433Z,68.94
2019-06-20T21:27:42.914Z,70.42
2019-06-20T21:30:12.190Z,69.84
2019-06-20T21:32:40.923Z,70.61
2019-06-20T21:35:11.384Z,68.54
2019-06-20T21:37:40.056Z,68.54
2019-06-20T21:40:09.740Z,68.69
2019-06-20T21:42:38.610Z,68.93
2019-06-20T21:45:08.178Z,70.85
2019-06-20T21:47:36.857Z,71.04
2019-06-20T21:50:05.845Z,70.08
2019-06-20T21:52:34.438Z,67.68
2019-06-20T21:55:03.484Z,67.82
2019-06-20T21:57:32.238Z,67.60
2019-06-20T22:00:00.812Z,68.74
2019-06-20T22:02:29.404Z,71.21
2019-06-20T22:04:57.992Z,68.24
2019-06-20T22:07:26.716Z,68.24
2019-06-20T22:09:55.371Z,70.73
2019-06-20T22:12:23.844Z,68.12
2019-06-20T22:14:52.516Z,67.29
2019-06-20T22:17:20.985Z,70.56
2019-06-20T22:19:49.434Z,69.57
2019-06-20T22:22:18.025Z,68.94
2019-06-20T22:24:46.481Z,68.53
2019-06-20T22:27:14.961Z,71.96
2019-06-20T22:29:43.472Z,68.10
2019-06-20T22:32:11.996Z,70.94
2019-06-20T22:34:40.438Z,69.20
2019-06-20T22:37:08.903Z,68.97
2019-06-20T22:39:37.270Z,69.47
2019-06-20T22:42:05.721Z,70.46
2019-06-20T22:44:34.199Z,70.06
2019-06-20T22:47:03.657Z,70.35
2019-06-20T22:49:32.233Z,72.17
2019-06-20T22:52:00.805Z,72.24
2019-06-20T22:54:29.505Z,74.01
2019-06-20T22:56:57.958Z,72.07
2019-06-20T22:59:26.420Z,72.48
2019-06-20T23:01:54.927Z,74.09
2019-06-20T23:04:23.380Z,72.34
2019-06-20T23:06:56.437Z,72.69
2019-06-20T23:09:22.519Z,73.92
2019-06-20T23:11:51.147Z,74.12
2019-06-20T23:14:19.791Z,75.36
2019-06-20T23:16:48.318Z,74.65
2019-06-20T23:19:16.817Z,75.18
2019-06-20T23:21:45.378Z,75.36
2019-06-20T23:24:14.338Z,76.15
2019-06-20T23:26:42.828Z,75.54
2019-06-20T23:29:23.435Z,75.50
2019-06-20T23:31:53.475Z,76.71
2019-06-20T23:34:22.234Z,76.79
2019-06-20T23:36:50.794Z,74.67
2019-06-20T23:39:19.352Z,74.96
2019-06-20T23:41:47.807Z,76.65
2019-06-20T23:44:16.379Z,75.01
2019-06-20T23:46:45.242Z,75.51
2019-06-20T23:49:13.850Z,75.72
2019-06-20T23:51:50.801Z,76.10
2019-06-20T23:54:19.508Z,79.51
2019-06-20T23:56:48.033Z,78.02
2019-06-20T23:59:16.390Z,76.20
